createdAt,value
2019-05-01T00:01:53.684Z,6.53
2019-05-01T00:04:40.269Z,7.67
2019-05-01T00:09:49.079Z,7.17
2019-05-01T00:12:16.383Z,10.37
2019-05-01T00:14:43.532Z,9.33
2019-05-01T00:17:10.930Z,6.83
2019-05-01T00:19:38.094Z,7.23
2019-05-01T00:22:05.543Z,7.57
2019-05-01T00:24:32.670Z,7.67
2019-05-01T00:26:59.764Z,7.97
2019-05-01T00:29:26.903Z,7.77
2019-05-01T00:31:54.008Z,7.90
2019-05-01T00:34:21.200Z,8.40
2019-05-01T00:36:48.484Z,9.50
2019-05-01T00:42:04.445Z,7.80
2019-05-01T00:44:31.607Z,7.33
2019-05-01T00:46:58.776Z,7.03
2019-05-01T00:49:25.911Z,9.43
2019-05-01T00:51:53.023Z,9.63
2019-05-01T00:54:20.609Z,9.27
2019-05-01T00:57:07.332Z,7.97
2019-05-01T00:59:54.384Z,8.43
2019-05-01T01:02:41.118Z,8.90
2019-05-01T01:05:08.321Z,9.17
2019-05-01T01:07:35.421Z,8.10
2019-05-01T01:10:03.163Z,8.40
2019-05-01T01:12:30.295Z,8.57
2019-05-01T01:14:57.389Z,8.23
2019-05-01T01:17:24.562Z,9.80
2019-05-01T01:19:52.112Z,10.17
2019-05-01T01:22:19.224Z,9.90
2019-05-01T01:24:46.353Z,9.20
2019-05-01T01:27:13.455Z,8.70
2019-05-01T01:29:40.861Z,9.53
2019-05-01T01:32:07.959Z,9.23
2019-05-01T01:34:35.433Z,8.67
2019-05-01T01:37:02.574Z,8.77
2019-05-01T01:39:29.781Z,9.60
2019-05-01T01:41:57.118Z,10.57
2019-05-01T01:44:43.819Z,9.07
2019-05-01T01:47:10.972Z,9.70
2019-05-01T01:49:38.071Z,9.83
2019-05-01T01:52:05.361Z,11.40
2019-05-01T01:54:32.875Z,9.93
2019-05-01T01:56:59.995Z,9.93
2019-05-01T01:59:28.326Z,11.80
2019-05-01T02:02:15.317Z,11.33
2019-05-01T02:05:02.113Z,12.23
2019-05-01T02:07:29.214Z,14.30
2019-05-01T02:09:56.331Z,12.57
2019-05-01T02:12:23.913Z,12.37
2019-05-01T02:14:51.040Z,14.43
2019-05-01T02:17:18.398Z,13.90
2019-05-01T02:19:45.875Z,14.27
2019-05-01T02:22:13.040Z,15.70
2019-05-01T02:24:40.213Z,14.33
2019-05-01T02:30:39.745Z,17.00
2019-05-01T02:33:07.053Z,16.03
2019-05-01T02:36:15.413Z,17.07
2019-05-01T02:42:34.143Z,16.17
2019-05-01T02:45:42.389Z,15.90
2019-05-01T02:48:10.228Z,17.53
2019-05-01T02:51:18.162Z,18.10
2019-05-01T02:54:26.038Z,19.97
2019-05-01T03:00:31.921Z,21.80
2019-05-01T03:03:39.895Z,20.43
2019-05-01T03:06:07.070Z,24.23
2019-05-01T03:09:15.016Z,26.57
2019-05-01T03:12:22.976Z,26.90
2019-05-01T03:15:31.101Z,28.47
2019-05-01T03:18:39.021Z,32.67
2019-05-01T03:24:06.483Z,37.20
2019-05-01T03:26:34.659Z,37.50
2019-05-01T03:29:02.682Z,35.07
2019-05-01T03:31:30.138Z,37.90
2019-05-01T03:33:57.225Z,36.47
2019-05-01T03:36:24.900Z,37.00
2019-05-01T03:38:52.081Z,39.07
2019-05-01T03:41:40.576Z,37.60
2019-05-01T03:44:08.157Z,37.10
2019-05-01T03:46:35.563Z,38.90
2019-05-01T03:49:43.454Z,37.93
2019-05-01T03:52:10.348Z,37.30
2019-05-01T03:54:37.107Z,39.53
2019-05-01T03:57:04.384Z,38.03
2019-05-01T03:59:31.548Z,36.83
2019-05-01T04:02:32.042Z,41.73
2019-05-01T04:04:47.824Z,41.07
2019-05-01T04:07:14.916Z,41.27
2019-05-01T04:09:42.049Z,43.23
2019-05-01T04:12:09.984Z,45.23
2019-05-01T04:14:39.414Z,52.23
2019-05-01T04:17:26.286Z,50.40
2019-05-01T04:19:53.483Z,51.00
2019-05-01T04:22:20.694Z,56.00
2019-05-01T04:24:47.992Z,59.03
2019-05-01T04:30:27.782Z,55.60
2019-05-01T04:36:04.343Z,57.03
2019-05-01T04:38:31.421Z,59.60
2019-05-01T04:41:20.414Z,58.33
2019-05-01T04:43:47.764Z,59.17
2019-05-01T04:46:15.097Z,61.53
2019-05-01T04:48:42.428Z,59.13
2019-05-01T04:51:09.503Z,56.83
2019-05-01T04:54:17.555Z,58.17
2019-05-01T04:56:44.752Z,59.27
2019-05-01T04:59:11.900Z,59.13
2019-05-01T05:01:58.746Z,61.50
2019-05-01T05:04:47.244Z,58.37
2019-05-01T05:07:14.323Z,59.60
2019-05-01T05:13:02.584Z,61.43
2019-05-01T05:15:49.561Z,56.20
2019-05-01T05:18:16.889Z,59.23
2019-05-01T05:20:44.311Z,55.03
2019-05-01T05:23:11.813Z,60.30
2019-05-01T05:25:52.098Z,60.53
2019-05-01T05:28:20.227Z,62.73
2019-05-01T05:31:09.358Z,59.37
2019-05-01T05:33:58.793Z,60.47
2019-05-01T05:37:07.426Z,59.60
2019-05-01T05:42:26.722Z,54.73
2019-05-01T05:44:53.655Z,58.90
2019-05-01T05:47:20.619Z,61.33
2019-05-01T05:49:47.466Z,57.47
2019-05-01T05:52:55.749Z,60.43
2019-05-01T05:55:28.152Z,54.30
2019-05-01T05:58:39.199Z,58.77
2019-05-01T06:01:47.334Z,59.93
2019-05-01T06:04:56.531Z,55.77
2019-05-01T06:08:04.819Z,55.17
2019-05-01T06:11:13.330Z,52.00
2019-05-01T06:14:21.290Z,56.03
2019-05-01T06:17:07.974Z,55.33
2019-05-01T06:23:04.600Z,53.17
2019-05-01T06:28:38.292Z,55.77
2019-05-01T06:31:24.928Z,55.80
2019-05-01T06:33:53.081Z,57.07
2019-05-01T06:36:23.691Z,54.50
2019-05-01T06:38:49.478Z,56.90
2019-05-01T06:44:45.846Z,58.23
2019-05-01T06:47:54.599Z,55.80
2019-05-01T06:50:42.722Z,54.70
2019-05-01T06:53:10.228Z,58.37
2019-05-01T06:55:37.501Z,54.47
2019-05-01T06:58:45.446Z,53.37
2019-05-01T07:01:13.721Z,55.27
2019-05-01T07:03:46.944Z,51.33
2019-05-01T07:06:14.337Z,51.83
2019-05-01T07:08:39.815Z,52.57
2019-05-01T07:11:10.935Z,53.03
2019-05-01T07:13:50.366Z,55.67
2019-05-01T07:16:17.565Z,53.93
2019-05-01T07:18:44.666Z,55.93
2019-05-01T07:21:11.760Z,58.77
2019-05-01T07:23:39.362Z,65.63
2019-05-01T07:26:10.039Z,69.47
2019-05-01T07:31:26.023Z,68.90
2019-05-01T07:33:53.618Z,68.17
2019-05-01T07:36:21.012Z,75.37
2019-05-01T07:39:29.190Z,71.30
2019-05-01T07:47:33.641Z,66.27
2019-05-01T07:50:41.958Z,69.50
2019-05-01T07:53:50.136Z,70.23
2019-05-01T07:56:17.567Z,72.47
2019-05-01T07:58:47.453Z,71.47
2019-05-01T08:04:07.143Z,72.37
2019-05-01T08:06:34.226Z,69.40
2019-05-01T08:09:01.356Z,72.43
2019-05-01T08:11:28.576Z,67.40
2019-05-01T08:14:07.033Z,69.33
2019-05-01T08:16:25.962Z,69.83
2019-05-01T08:19:13.281Z,65.17
2019-05-01T08:22:01.720Z,67.07
2019-05-01T08:24:30.238Z,64.03
2019-05-01T08:26:58.083Z,60.13
2019-05-01T08:32:52.628Z,55.00
2019-05-01T08:35:39.639Z,54.87
2019-05-01T08:38:07.674Z,52.17
2019-05-01T08:40:37.269Z,47.70
2019-05-01T08:43:04.245Z,47.13
2019-05-01T08:45:51.149Z,47.83
2019-05-01T08:51:15.554Z,51.37
2019-05-01T08:53:44.601Z,49.27
2019-05-01T08:56:11.600Z,47.93
2019-05-01T08:58:39.518Z,43.50
2019-05-01T09:01:10.814Z,44.93
2019-05-01T09:03:36.224Z,44.63
2019-05-01T09:06:04.975Z,46.17
2019-05-01T09:08:33.340Z,43.87
2019-05-01T09:11:20.045Z,42.27
2019-05-01T09:13:47.516Z,40.23
2019-05-01T09:16:14.718Z,45.20
2019-05-01T09:18:42.702Z,41.07
2019-05-01T09:21:09.891Z,45.17
2019-05-01T09:23:36.991Z,39.30
2019-05-01T09:26:23.850Z,39.30
2019-05-01T09:31:45.080Z,39.70
2019-05-01T09:34:24.506Z,38.33
2019-05-01T09:36:51.769Z,34.77
2019-05-01T09:42:08.760Z,36.17
2019-05-01T09:44:36.124Z,33.67
2019-05-01T09:49:54.033Z,28.63
2019-05-01T09:55:29.719Z,28.97
2019-05-01T10:41:23.330Z,26.13
2019-05-01T10:43:51.928Z,25.33
2019-05-01T10:46:18.788Z,25.47
2019-05-01T10:48:45.580Z,24.90
2019-05-01T10:51:12.594Z,23.80
2019-05-01T10:53:39.659Z,23.57
2019-05-01T10:56:07.239Z,26.50
2019-05-01T10:58:33.962Z,22.83
2019-05-01T11:03:44.505Z,25.53
2019-05-01T11:06:30.865Z,24.43
2019-05-01T11:08:57.624Z,23.13
2019-05-01T11:11:24.272Z,23.00
2019-05-01T11:13:51.060Z,23.10
2019-05-01T11:16:17.833Z,23.53
2019-05-01T11:18:44.595Z,23.47
2019-05-01T11:21:11.499Z,22.90
2019-05-01T11:23:39.658Z,24.57
2019-05-01T11:26:06.610Z,22.90
2019-05-01T11:28:35.770Z,22.30
2019-05-01T11:39:47.673Z,21.57
2019-05-01T11:42:15.031Z,20.53
2019-05-01T11:44:42.582Z,21.00
2019-05-01T11:47:09.896Z,20.00
2019-05-01T11:49:37.212Z,20.43
2019-05-01T11:52:04.451Z,19.63
2019-05-01T11:54:31.934Z,20.77
2019-05-01T11:56:59.035Z,20.90
2019-05-01T11:59:26.137Z,19.07
2019-05-01T12:01:53.295Z,20.67
2019-05-01T12:04:20.410Z,18.43
2019-05-01T12:06:47.593Z,17.73
2019-05-01T12:09:15.147Z,18.57
2019-05-01T12:14:30.799Z,18.37
2019-05-01T12:17:17.914Z,18.57
2019-05-01T12:19:44.648Z,18.50
2019-05-01T12:22:11.625Z,18.47
2019-05-01T12:24:38.406Z,18.37
2019-05-01T12:27:05.600Z,17.50
2019-05-01T12:29:32.422Z,18.20
2019-05-01T12:31:59.374Z,18.57
2019-05-01T12:34:26.528Z,19.63
2019-05-01T12:37:13.542Z,18.47
2019-05-01T12:39:40.370Z,18.70
2019-05-01T12:42:21.846Z,20.33
2019-05-01T12:44:48.576Z,20.10
2019-05-01T12:47:38.019Z,19.87
2019-05-01T12:50:04.787Z,17.87
2019-05-01T12:52:51.704Z,18.53
2019-05-01T12:55:38.368Z,20.20
2019-05-01T12:58:06.512Z,18.13
2019-05-01T13:01:23.222Z,18.03
2019-05-01T13:03:51.379Z,15.73
2019-05-01T13:06:18.487Z,16.93
2019-05-01T13:08:45.648Z,16.73
2019-05-01T13:11:12.846Z,16.20
2019-05-01T13:13:40.054Z,14.87
2019-05-01T13:16:07.215Z,16.53
2019-05-01T13:18:34.318Z,14.20
2019-05-01T13:21:01.485Z,14.33
2019-05-01T13:23:29.618Z,14.67
2019-05-01T13:29:10.899Z,14.80
2019-05-01T13:31:58.470Z,14.30
2019-05-01T13:34:25.983Z,13.37
2019-05-01T13:37:02.708Z,13.50
2019-05-01T13:39:22.499Z,15.37
2019-05-01T13:41:49.337Z,13.40
2019-05-01T13:44:16.496Z,13.17
2019-05-01T13:46:43.704Z,13.33
2019-05-01T13:49:10.756Z,13.63
2019-05-01T13:51:38.636Z,12.50
2019-05-01T13:56:55.619Z,12.27
2019-05-01T13:59:23.178Z,11.60
2019-05-01T14:01:50.734Z,12.37
2019-05-01T14:04:21.652Z,13.23
2019-05-01T14:06:49.221Z,12.00
2019-05-01T14:11:55.423Z,10.80
2019-05-01T14:14:23.578Z,10.97
2019-05-01T14:16:51.045Z,10.33
2019-05-01T14:19:18.205Z,10.60
2019-05-01T14:24:43.974Z,11.00
2019-05-01T14:27:12.003Z,10.50
2019-05-01T14:32:17.277Z,13.83
2019-05-01T14:34:44.315Z,10.43
2019-05-01T14:37:11.051Z,10.53
2019-05-01T14:39:38.383Z,16.97
2019-05-01T14:42:25.379Z,10.70
2019-05-01T14:44:52.583Z,9.33
2019-05-01T14:47:21.142Z,9.73
2019-05-01T14:49:48.327Z,9.90
2019-05-01T14:52:51.883Z,12.10
2019-05-01T14:55:19.042Z,9.60
2019-05-01T14:57:46.370Z,11.97
2019-05-01T15:03:01.899Z,9.63
2019-05-01T15:05:28.979Z,7.77
2019-05-01T15:07:55.954Z,8.27
2019-05-01T15:10:23.326Z,8.37
2019-05-01T15:18:47.151Z,8.50
2019-05-01T15:24:53.296Z,7.73
2019-05-01T15:27:20.850Z,7.33
2019-05-01T15:29:48.203Z,7.50
2019-05-01T15:32:15.510Z,6.87
2019-05-01T15:34:42.750Z,8.17
2019-05-01T15:37:10.270Z,6.93
2019-05-01T15:39:57.065Z,7.67
2019-05-01T15:42:43.754Z,7.80
2019-05-01T15:45:11.108Z,5.33
2019-05-01T15:47:38.185Z,7.93
2019-05-01T15:50:05.700Z,6.77
2019-05-01T15:52:32.859Z,7.97
2019-05-01T15:55:00.248Z,6.93
2019-05-01T15:57:27.355Z,5.97
2019-05-01T15:59:54.496Z,6.73
2019-05-01T16:02:21.588Z,6.10
2019-05-01T16:04:48.811Z,7.10
2019-05-01T16:07:15.973Z,8.23
2019-05-01T16:09:43.475Z,7.07
2019-05-01T16:15:47.724Z,5.77
2019-05-01T16:18:14.855Z,6.90
2019-05-01T16:20:41.934Z,5.20
2019-05-01T16:23:10.451Z,5.87
2019-05-01T16:25:37.581Z,5.37
2019-05-01T16:28:04.728Z,8.30
2019-05-01T16:30:32.056Z,6.17
2019-05-01T16:32:59.188Z,6.23
2019-05-01T16:35:26.723Z,5.10
2019-05-01T16:41:03.274Z,4.47
2019-05-01T16:43:30.735Z,5.13
2019-05-01T16:46:10.686Z,5.83
2019-05-01T16:48:37.422Z,5.87
2019-05-01T16:51:04.248Z,4.43
2019-05-01T16:53:31.026Z,7.40
2019-05-01T16:55:57.945Z,4.77
2019-05-01T16:58:25.231Z,7.80
2019-05-01T17:04:16.715Z,5.37
2019-05-01T17:07:03.444Z,4.83
2019-05-01T17:09:50.167Z,4.00
2019-05-01T17:15:47.833Z,6.60
2019-05-01T17:21:03.683Z,4.27
2019-05-01T17:23:30.812Z,5.70
2019-05-01T17:25:58.309Z,3.53
2019-05-01T17:28:25.412Z,4.00
2019-05-01T17:33:50.848Z,4.17
2019-05-01T17:36:18.752Z,4.70
2019-05-01T17:38:49.676Z,3.33
2019-05-01T17:41:34.857Z,5.23
2019-05-01T17:44:01.967Z,4.17
2019-05-01T17:46:29.510Z,4.67
2019-05-01T17:48:59.313Z,5.00
2019-05-01T17:51:26.413Z,6.63
2019-05-01T17:53:53.942Z,5.70
2019-05-01T17:56:27.701Z,4.10
2019-05-01T17:58:50.711Z,4.17
2019-05-01T18:01:37.475Z,4.77
2019-05-01T18:04:24.174Z,3.60
2019-05-01T18:06:51.963Z,6.30
2019-05-01T18:09:19.520Z,4.33
2019-05-01T18:11:47.513Z,3.47
2019-05-01T18:14:16.059Z,4.00
2019-05-01T18:16:43.205Z,3.80
2019-05-01T18:19:10.564Z,3.70
2019-05-01T18:21:37.672Z,6.37
2019-05-01T18:24:24.753Z,5.03
2019-05-01T18:27:14.705Z,5.07
2019-05-01T18:30:00.147Z,3.80
2019-05-01T18:32:51.946Z,4.23
2019-05-01T18:35:16.485Z,4.13
2019-05-01T18:40:47.808Z,4.00
2019-05-01T18:43:15.478Z,4.43
2019-05-01T18:49:13.616Z,5.40
2019-05-01T18:51:42.028Z,4.83
2019-05-01T19:02:04.359Z,4.40
2019-05-01T19:04:32.170Z,4.90
2019-05-01T19:07:00.615Z,5.73
2019-05-01T19:09:30.261Z,4.00
2019-05-01T19:11:56.996Z,5.33
2019-05-01T19:15:05.433Z,4.20
2019-05-01T19:17:32.715Z,4.10
2019-05-01T19:19:59.956Z,5.27
2019-05-01T19:22:27.204Z,5.73
2019-05-01T19:27:49.225Z,4.43
2019-05-01T19:30:17.205Z,5.87
2019-05-01T19:33:25.509Z,5.00
2019-05-01T19:35:52.696Z,4.30
2019-05-01T19:38:39.289Z,8.47
2019-05-01T19:41:08.879Z,7.23
2019-05-01T19:43:35.888Z,8.07
2019-05-01T19:46:23.947Z,6.33
2019-05-01T19:48:52.741Z,6.43
2019-05-01T19:51:33.376Z,6.83
2019-05-01T19:54:00.594Z,5.70
2019-05-01T19:56:28.523Z,5.63
2019-05-01T19:58:55.663Z,6.43
2019-05-01T20:01:22.778Z,5.57
2019-05-01T20:03:50.087Z,5.73
2019-05-01T20:06:17.794Z,5.53
2019-05-01T20:08:45.348Z,5.93
2019-05-01T20:11:12.509Z,6.10
2019-05-01T20:13:40.066Z,6.97
2019-05-01T20:16:08.515Z,6.40
2019-05-01T20:18:35.619Z,6.70
2019-05-01T20:21:02.713Z,6.77
2019-05-01T20:23:31.438Z,7.60
2019-05-01T20:25:59.294Z,6.20
2019-05-01T20:28:28.428Z,7.33
2019-05-01T20:30:56.033Z,8.03
2019-05-01T20:33:23.151Z,6.43
2019-05-01T20:35:50.268Z,7.43
2019-05-01T20:38:17.447Z,9.33
2019-05-01T20:40:45.368Z,10.20
2019-05-01T20:43:12.707Z,9.30
2019-05-01T20:45:39.947Z,9.90
2019-05-01T20:48:07.171Z,8.93
2019-05-01T20:50:34.705Z,10.10
2019-05-01T20:53:01.877Z,9.37
2019-05-01T20:55:28.987Z,12.30
2019-05-01T20:58:16.057Z,9.97
2019-05-01T21:00:43.364Z,9.23
2019-05-01T21:03:14.272Z,8.87
2019-05-01T21:06:02.844Z,9.63
2019-05-01T21:08:47.987Z,9.63
2019-05-01T21:14:23.246Z,9.53
2019-05-01T21:16:51.136Z,9.10
2019-05-01T21:19:18.294Z,9.33
2019-05-01T21:21:45.349Z,8.27
2019-05-01T21:24:14.011Z,8.70
2019-05-01T21:26:43.379Z,9.53
2019-05-01T21:29:10.875Z,9.67
2019-05-01T21:31:38.447Z,10.17
2019-05-01T21:34:05.609Z,9.13
2019-05-01T21:36:32.713Z,8.03
2019-05-01T21:39:20.418Z,9.87
2019-05-01T21:41:48.442Z,9.57
2019-05-01T21:44:15.759Z,10.07
2019-05-01T21:46:43.305Z,8.73
2019-05-01T21:49:12.796Z,10.83
2019-05-01T21:51:42.328Z,8.50
2019-05-01T21:54:08.572Z,8.90
2019-05-01T21:56:36.865Z,9.27
2019-05-01T21:59:08.380Z,9.27
2019-05-01T22:01:34.741Z,9.33
2019-05-01T22:04:22.467Z,8.90
2019-05-01T22:06:51.909Z,8.63
2019-05-01T22:12:12.922Z,10.63
2019-05-01T22:14:56.755Z,13.70
2019-05-01T22:17:43.361Z,9.93
2019-05-01T22:26:18.879Z,12.20
2019-05-01T22:31:58.676Z,11.70
2019-05-01T22:34:45.737Z,11.80
2019-05-01T22:37:12.848Z,11.47
2019-05-01T22:42:29.022Z,12.00
2019-05-01T22:45:35.068Z,13.93
2019-05-01T22:48:02.211Z,11.77
2019-05-01T22:50:29.342Z,13.67
2019-05-01T22:52:56.879Z,14.57
2019-05-01T22:55:25.336Z,13.67
2019-05-01T22:57:53.483Z,13.97
2019-05-01T23:01:02.320Z,12.77
2019-05-01T23:03:48.951Z,15.10
2019-05-01T23:08:51.389Z,14.07
2019-05-01T23:11:20.423Z,12.43
2019-05-01T23:13:47.641Z,15.43
2019-05-01T23:19:03.451Z,13.60
2019-05-01T23:21:31.011Z,14.83
2019-05-01T23:24:01.898Z,16.13
2019-05-01T23:26:27.504Z,18.10
2019-05-01T23:28:54.858Z,14.43
2019-05-01T23:31:22.049Z,14.20
2019-05-01T23:33:50.579Z,13.03
2019-05-01T23:36:23.646Z,12.93
2019-05-01T23:38:48.321Z,15.30
2019-05-01T23:41:15.476Z,13.13
2019-05-01T23:43:43.034Z,16.30
2019-05-01T23:46:10.162Z,17.83
2019-05-01T23:48:37.320Z,18.40
2019-05-01T23:51:04.412Z,17.43
2019-05-01T23:53:31.627Z,17.27
2019-05-01T23:56:13.188Z,17.60
2019-05-01T23:58:40.057Z,19.67
